CHICAGO AURORA MUNICIPAL, IL, United States (KARR) 41-46N 088-28W 215M
Wind: from the S (190 degrees) at 5 MPH (4 KT):0
Visibility: 10 mile(s):0
Sky conditions: clear
Temperature: 51.1 F (10.6 C)
Dew Point: 45.0 F (7.2 C)
Relative Humidity: 79%
Pressure (altimeter): 30 in. Hg (1015 hPa)
ob: KARR 241252Z 19004KT 10SM CLR 11/07 A3000 RMK AO2 SLP161 T01060072
Raw METAR:KARR 241252Z 19004KT 10SM CLR 11/07 A3000 RMK AO2 SLP161 T01060072
cycle: 13
Back to top

CHICAGO/WEST CH DUPAGE, IL, United States (KDPA) 41-54N 88-15W 230M
Wind: from the SSW (200 degrees) at 5 MPH (4 KT):0
Visibility: 10 mile(s):0
Sky conditions: clear
Temperature: 52.0 F (11.1 C)
Dew Point: 44.1 F (6.7 C)
Relative Humidity: 74%
Pressure (altimeter): 29.99 in. Hg (1015 hPa)
ob: KDPA 241252Z 20004KT 10SM CLR 11/07 A2999 RMK AO2 SLP157 T01110067
Raw METAR:KDPA 241252Z 20004KT 10SM CLR 11/07 A2999 RMK AO2 SLP157 T01110067
cycle: 13
Back to top

De Kalb, De Kalb Taylor Municipal Airport, IL, United States (KDKB) 41-55-55N 088-42-30W
Wind: from the S (190 degrees) at 6 MPH (5 KT):0
Visibility: 10 mile(s):0
Sky conditions: clear
Pressure (altimeter): 30 in. Hg (1015 hPa)
ob: KDKB 241255Z 19005KT 10SM CLR A3000 RMK AO2
Raw METAR:KDKB 241255Z 19005KT 10SM CLR A3000 RMK AO2
cycle: 13
Back to top

Joliet, Joliet Regional Airport, IL, United States (KJOT) 41-31-05N 088-10-31W
Wind: from the SSW (200 degrees) at 3 MPH (3 KT):0
Visibility: 10 mile(s):0
Sky conditions: clear
Temperature: 52.9 F (11.6 C)
Dew Point: 47.5 F (8.6 C)
Relative Humidity: 81%
Pressure (altimeter): 30.02 in. Hg (1016 hPa)
ob: KJOT 241255Z AUTO 20003KT 10SM CLR 12/09 A3002 RMK AO2 T01160086
Raw METAR:KJOT 241255Z AUTO 20003KT 10SM CLR 12/09 A3002 RMK AO2 T01160086
cycle: 13
Back to top

Kankakee, Greater Kankakee Airport, IL, United States (KIKK) 41-04-17N 087-50-47W
Wind: from the SW (230 degrees) at 7 MPH (6 KT):0
Visibility: 10 mile(s):0
Sky conditions: clear
Temperature: 53 F (12 C)
Dew Point: 46 F (8 C)
Relative Humidity: 76%
Pressure (altimeter): 30.04 in. Hg (1017 hPa)
ob: KIKK 241255Z AUTO 23006KT 10SM CLR 12/08 A3004 RMK AO2
Raw METAR:KIKK 241255Z AUTO 23006KT 10SM CLR 12/08 A3004 RMK AO2
cycle: 13
Back to top

Morris, Morris Municipal-James R Washburn Field Airport, IL, United States (KC09) 41-25-31N 088-25-07W
Wind: from the SSW (210 degrees) at 3 MPH (3 KT):0
Visibility: 10 mile(s):0
Sky conditions: clear
Temperature: 50.5 F (10.3 C)
Dew Point: 48.0 F (8.9 C)
Relative Humidity: 91%
Pressure (altimeter): 30.01 in. Hg (1016 hPa)
ob: KC09 241255Z AUTO 21003KT 10SM CLR 10/09 A3001 RMK AO2 T01030089
Raw METAR:KC09 241255Z AUTO 21003KT 10SM CLR 10/09 A3001 RMK AO2 T01030089
cycle: 13
Back to top

Peru, Illinois Valley Regional-Walter A Duncan Field Airport, IL, United States (KVYS) 41-21-07N 089-09-11W
Wind: from the SSW (200 degrees) at 6 MPH (5 KT):0
Visibility: 10 mile(s):0
Sky conditions: clear
Temperature: 53.6 F (12.0 C)
Dew Point: 46.6 F (8.1 C)
Relative Humidity: 77%
Pressure (altimeter): 30.01 in. Hg (1016 hPa)
ob: KVYS 241255Z AUTO 20005KT 10SM CLR 12/08 A3001 RMK AO2 T01200081
Raw METAR:KVYS 241255Z AUTO 20005KT 10SM CLR 12/08 A3001 RMK AO2 T01200081
cycle: 13
Back to top

Rochelle, Rochelle Municipal-Koritz Field Airport, IL, United States (KRPJ) 41-53-35N 089-04-42W
Wind: from the S (190 degrees) at 3 MPH (3 KT):0
Visibility: 10 mile(s):0
Sky conditions: clear
Temperature: 47.7 F (8.7 C)
Dew Point: 45.1 F (7.3 C)
Relative Humidity: 90%
Pressure (altimeter): 29.99 in. Hg (1015 hPa)
ob: KRPJ 241255Z AUTO 19003KT 10SM CLR 09/07 A2999 RMK AO2 T00870073
Raw METAR:KRPJ 241255Z AUTO 19003KT 10SM CLR 09/07 A2999 RMK AO2 T00870073
cycle: 13
Back to top